Time;durP1;ratioP1;P1;durP2;ratioP2;P2;SDS_P1;SDS_P2;PMS_P1;PMS_P2;Temp;Humidity;BMP_temperature;BMP_pressure;BME280_temperature;BME280_humidity;BME280_pressure;Samples;Min_cycle;Max_cycle;Signal;HPM_P1;HPM_P2
2023/05/30 00:01:24;;;;;;;5.07;3.50;;;15.30;99.90;;;;;;5090549;28;20554;-78
2023/05/30 00:03:51;;;;;;;6.40;3.93;;;15.30;99.90;;;;;;5090414;28;20446;-78
2023/05/30 00:06:19;;;;;;;6.33;4.60;;;15.40;99.90;;;;;;5090472;28;20543;-78
2023/05/30 00:08:46;;;;;;;5.63;3.83;;;15.30;99.90;;;;;;5091347;28;20550;-78
2023/05/30 00:11:14;;;;;;;5.77;3.37;;;15.20;99.90;;;;;;5091909;28;20901;-78
2023/05/30 00:13:42;;;;;;;8.30;4.07;;;15.20;99.90;;;;;;5091535;28;20447;-78
2023/05/30 00:16:10;;;;;;;6.90;4.67;;;15.10;99.90;;;;;;5091497;28;20444;-78
2023/05/30 00:18:37;;;;;;;6.20;4.07;;;15.10;99.90;;;;;;5091853;28;20447;-78
2023/05/30 00:21:05;;;;;;;7.07;3.90;;;15.10;99.90;;;;;;5089038;28;20502;-78
2023/05/30 00:23:37;;;;;;;5.67;3.50;;;15.20;99.90;;;;;;5091243;28;20499;-78
2023/05/30 00:26:05;;;;;;;5.63;3.73;;;15.00;99.90;;;;;;5091229;28;20501;-78
2023/05/30 00:28:32;;;;;;;6.17;3.97;;;15.00;99.90;;;;;;5091508;28;21039;-78
2023/05/30 00:30:59;;;;;;;5.20;4.20;;;15.00;99.90;;;;;;5091489;28;20907;-78
2023/05/30 00:33:25;;;;;;;6.13;4.30;;;15.10;99.90;;;;;;5090989;28;20482;-78
2023/05/30 00:35:52;;;;;;;6.33;3.87;;;15.10;99.90;;;;;;5091108;28;20534;-78
2023/05/30 00:38:20;;;;;;;7.10;3.97;;;15.10;99.90;;;;;;5091212;28;20553;-78
2023/05/30 00:40:48;;;;;;;6.57;4.03;;;15.10;99.90;;;;;;5091555;28;20462;-78
2023/05/30 00:43:18;;;;;;;6.43;4.27;;;15.00;99.90;;;;;;5090845;28;20563;-78
2023/05/30 00:45:45;;;;;;;4.80;3.73;;;15.00;99.90;;;;;;5090913;28;20452;-78
2023/05/30 00:48:14;;;;;;;6.97;4.30;;;14.90;99.90;;;;;;5091229;28;20485;-78
2023/05/30 00:50:41;;;;;;;5.87;4.00;;;14.80;99.90;;;;;;5091357;28;20825;-78
2023/05/30 00:53:09;;;;;;;5.30;3.53;;;14.80;99.90;;;;;;5091017;28;20469;-78
2023/05/30 00:55:36;;;;;;;5.37;4.40;;;14.80;99.90;;;;;;5089531;28;21007;-78
2023/05/30 00:58:04;;;;;;;7.80;4.23;;;14.80;99.90;;;;;;5090772;28;21191;-78
2023/05/30 01:00:37;;;;;;;5.50;3.57;;;14.80;99.90;;;;;;5091330;28;20548;-78
2023/05/30 01:03:05;;;;;;;5.60;3.37;;;14.70;99.90;;;;;;5090656;28;20472;-78
2023/05/30 01:05:32;;;;;;;6.53;4.10;;;14.80;99.90;;;;;;5091166;28;20439;-78
2023/05/30 01:07:59;;;;;;;6.47;3.70;;;14.80;99.90;;;;;;5090698;28;21024;-78
2023/05/30 01:10:26;;;;;;;5.70;3.67;;;14.80;99.90;;;;;;5090904;28;20461;-78
2023/05/30 01:13:04;;;;;;;4.70;3.67;;;14.80;99.90;;;;;;5090658;28;20522;-78
2023/05/30 01:15:37;;;;;;;5.00;3.50;;;14.80;99.90;;;;;;5091114;28;20439;-78
2023/05/30 01:18:09;;;;;;;5.77;4.10;;;14.80;99.90;;;;;;5091161;28;20524;-78
2023/05/30 01:20:40;;;;;;;6.63;3.60;;;14.80;99.90;;;;;;5089273;28;20494;-78
2023/05/30 01:23:27;;;;;;;4.70;3.47;;;14.80;99.90;;;;;;5090359;28;20600;-78
2023/05/30 01:26:08;;;;;;;6.90;3.80;;;14.70;99.90;;;;;;5090552;28;20480;-78
2023/05/30 01:28:39;;;;;;;6.97;3.77;;;14.60;99.90;;;;;;5090851;28;20480;-78
2023/05/30 01:31:07;;;;;;;6.43;4.37;;;14.50;99.90;;;;;;5090556;28;20471;-78
2023/05/30 01:33:35;;;;;;;10.10;4.43;;;14.50;99.90;;;;;;5092089;28;20537;-78
2023/05/30 01:36:01;;;;;;;5.57;3.90;;;14.50;99.90;;;;;;5094305;28;20536;-78
2023/05/30 01:38:28;;;;;;;7.83;4.50;;;14.40;99.90;;;;;;5094601;28;21005;-78
2023/05/30 01:40:57;;;;;;;5.07;3.10;;;14.40;99.90;;;;;;5094238;28;20542;-78
2023/05/30 01:43:47;;;;;;;6.47;3.97;;;14.50;99.90;;;;;;5094267;28;20508;-78
2023/05/30 01:46:25;;;;;;;5.53;3.67;;;14.50;99.90;;;;;;5094233;28;20492;-78
2023/05/30 01:48:59;;;;;;;5.10;3.77;;;14.50;99.90;;;;;;5094297;28;20453;-78
2023/05/30 01:51:31;;;;;;;7.60;4.23;;;14.50;99.90;;;;;;5094618;28;20464;-78
2023/05/30 01:54:00;;;;;;;4.90;3.30;;;14.50;99.90;;;;;;5092723;28;20432;-78
2023/05/30 01:56:28;;;;;;;6.73;4.00;;;14.40;99.90;;;;;;5093988;28;20486;-78
2023/05/30 01:58:57;;;;;;;5.53;3.33;;;14.40;99.90;;;;;;5094335;28;20454;-78
2023/05/30 02:01:29;;;;;;;6.30;4.07;;;14.20;99.90;;;;;;5094230;28;20567;-78
2023/05/30 02:03:56;;;;;;;5.77;3.73;;;14.10;99.90;;;;;;5093886;28;20507;-78
2023/05/30 02:06:24;;;;;;;4.67;3.27;;;14.20;99.90;;;;;;5093782;28;20467;-78
2023/05/30 02:08:51;;;;;;;6.53;3.70;;;14.30;99.90;;;;;;5094180;28;20941;-78
2023/05/30 02:11:18;;;;;;;6.00;3.37;;;14.20;99.90;;;;;;5094066;28;20496;-78
2023/05/30 02:13:45;;;;;;;6.47;3.80;;;14.20;99.90;;;;;;5093673;28;20441;-78
2023/05/30 02:16:15;;;;;;;6.87;3.53;;;14.20;99.90;;;;;;5093575;28;20436;-78
2023/05/30 02:18:42;;;;;;;6.23;3.53;;;14.30;99.90;;;;;;5093897;28;20450;-78
2023/05/30 02:21:09;;;;;;;11.73;4.50;;;14.30;99.90;;;;;;5092050;28;20488;-78
2023/05/30 02:23:36;;;;;;;5.73;3.90;;;14.30;99.90;;;;;;5093257;28;20575;-78
2023/05/30 02:26:03;;;;;;;5.13;3.63;;;14.20;99.90;;;;;;5093799;28;20439;-78
2023/05/30 02:28:30;;;;;;;6.50;3.40;;;14.20;99.90;;;;;;5093563;28;20546;-78
2023/05/30 02:30:57;;;;;;;5.60;3.50;;;14.20;99.90;;;;;;5093386;28;20464;-78
2023/05/30 02:33:25;;;;;;;5.70;3.50;;;14.20;99.90;;;;;;5093301;28;20477;-78
2023/05/30 02:35:52;;;;;;;5.83;4.00;;;14.20;99.90;;;;;;5093205;28;20952;-78
2023/05/30 02:38:19;;;;;;;5.23;3.67;;;14.10;99.90;;;;;;5093471;28;20472;-78
2023/05/30 02:40:46;;;;;;;5.13;3.37;;;14.00;99.90;;;;;;5093405;28;20497;-78
2023/05/30 02:43:14;;;;;;;6.53;3.70;;;13.80;99.90;;;;;;5092976;28;20580;-77
2023/05/30 02:45:41;;;;;;;6.53;3.77;;;13.70;99.90;;;;;;5092858;28;20468;-77
2023/05/30 02:48:08;;;;;;;5.87;3.60;;;13.80;99.90;;;;;;5093261;28;21016;-78
2023/05/30 02:50:36;;;;;;;6.07;4.00;;;13.90;99.90;;;;;;5092843;28;20487;-78
2023/05/30 02:53:04;;;;;;;8.77;4.53;;;14.00;99.90;;;;;;5092671;28;20470;-77
2023/05/30 02:55:31;;;;;;;6.63;4.07;;;14.20;99.90;;;;;;5091715;28;20493;-77
2023/05/30 02:57:58;;;;;;;5.73;3.70;;;14.20;99.90;;;;;;5092619;28;20524;-77
2023/05/30 03:00:25;;;;;;;6.17;3.80;;;14.00;99.90;;;;;;5092934;28;20990;-77
2023/05/30 03:02:52;;;;;;;4.73;3.43;;;13.80;99.90;;;;;;5092890;28;20911;-77
2023/05/30 03:05:19;;;;;;;5.70;5.00;;;13.80;99.90;;;;;;5092888;28;20476;-77
2023/05/30 03:07:47;;;;;;;5.63;4.10;;;13.90;99.90;;;;;;5092474;28;20476;-77
2023/05/30 03:10:14;;;;;;;8.07;3.93;;;13.90;99.90;;;;;;5092727;28;20500;-77
2023/05/30 03:12:41;;;;;;;5.80;4.00;;;13.90;99.90;;;;;;5092315;28;20944;-78
2023/05/30 03:15:09;;;;;;;5.43;4.20;;;14.00;99.90;;;;;;5092956;28;20517;-78
2023/05/30 03:17:37;;;;;;;6.97;4.10;;;14.00;99.90;;;;;;5092522;28;20468;-78
2023/05/30 03:20:06;;;;;;;7.40;4.50;;;13.90;99.90;;;;;;5090988;28;20466;-78
2023/05/30 03:22:33;;;;;;;5.83;3.83;;;14.00;99.90;;;;;;5092325;28;20444;-77
2023/05/30 03:25:02;;;;;;;6.20;4.00;;;14.00;99.90;;;;;;5092492;28;20452;-77
2023/05/30 03:27:29;;;;;;;6.13;4.00;;;14.00;99.90;;;;;;5092066;28;20448;-77
2023/05/30 03:29:57;;;;;;;5.60;3.80;;;13.90;99.90;;;;;;5092177;28;20497;-77
2023/05/30 03:32:24;;;;;;;6.60;3.87;;;13.70;99.90;;;;;;5092229;28;20440;-78
2023/05/30 03:34:51;;;;;;;5.63;3.63;;;13.70;99.90;;;;;;5092675;28;20487;-77
2023/05/30 03:37:17;;;;;;;6.47;4.43;;;13.70;99.90;;;;;;5105848;28;20454;-77
2023/05/30 03:39:44;;;;;;;5.30;3.97;;;13.80;99.90;;;;;;5092552;28;20488;-77
2023/05/30 03:42:13;;;;;;;6.50;3.87;;;13.80;99.90;;;;;;5105904;28;20480;-78
2023/05/30 03:44:40;;;;;;;7.57;4.30;;;13.90;99.90;;;;;;5105125;28;20509;-77
2023/05/30 03:47:07;;;;;;;6.20;3.80;;;13.90;99.90;;;;;;5111903;28;20470;-77
2023/05/30 03:49:34;;;;;;;6.70;4.00;;;13.90;99.90;;;;;;5104388;28;20529;-77
2023/05/30 03:52:00;;;;;;;6.20;3.80;;;13.90;99.90;;;;;;5111996;28;20542;-77
2023/05/30 03:54:27;;;;;;;5.43;3.57;;;14.00;99.90;;;;;;5110686;28;20492;-78
2023/05/30 03:56:54;;;;;;;5.50;3.47;;;14.00;99.90;;;;;;5111987;28;20895;-77
2023/05/30 03:59:23;;;;;;;7.43;4.70;;;14.10;99.90;;;;;;5112349;28;20501;-77
2023/05/30 04:01:49;;;;;;;5.80;3.53;;;14.00;99.90;;;;;;5111836;28;20542;-77
2023/05/30 04:04:16;;;;;;;6.20;3.60;;;14.00;99.90;;;;;;5111665;28;20481;-77
2023/05/30 04:06:43;;;;;;;8.47;3.57;;;13.90;99.90;;;;;;5103467;28;20467;-77
2023/05/30 04:09:10;;;;;;;5.20;4.00;;;13.90;99.90;;;;;;5112278;28;20527;-77
2023/05/30 04:11:37;;;;;;;7.13;3.43;;;13.90;99.90;;;;;;5104954;28;20489;-77
2023/05/30 04:14:04;;;;;;;5.47;3.80;;;14.00;99.90;;;;;;5091558;28;20505;-78
2023/05/30 04:16:32;;;;;;;5.37;4.30;;;14.00;99.90;;;;;;5091450;28;20483;-78
2023/05/30 04:18:59;;;;;;;6.03;3.97;;;13.90;99.90;;;;;;5091526;28;20526;-78
2023/05/30 04:21:27;;;;;;;6.90;4.40;;;13.90;99.90;;;;;;5089578;28;20473;-78
2023/05/30 04:23:54;;;;;;;6.07;4.27;;;13.90;99.90;;;;;;5091027;28;20992;-77
2023/05/30 04:26:22;;;;;;;6.73;4.43;;;13.90;99.90;;;;;;5090998;28;20490;-78
2023/05/30 04:28:50;;;;;;;6.07;4.20;;;13.70;99.90;;;;;;5091240;28;20463;-78
2023/05/30 04:31:17;;;;;;;6.70;4.60;;;13.80;99.90;;;;;;5091423;28;20482;-78
2023/05/30 04:33:48;;;;;;;6.10;3.90;;;13.90;99.90;;;;;;5090820;28;20507;-78
2023/05/30 04:36:18;;;;;;;7.00;4.33;;;14.00;99.90;;;;;;5091048;28;20926;-77
2023/05/30 04:38:45;;;;;;;6.07;4.37;;;14.10;99.90;;;;;;5090378;28;20497;-78
2023/05/30 04:41:18;;;;;;;7.43;4.47;;;14.20;99.90;;;;;;5091459;28;20943;-77
2023/05/30 04:43:48;;;;;;;8.40;4.10;;;14.20;99.90;;;;;;5090883;28;20511;-77
2023/05/30 04:46:18;;;;;;;6.80;4.17;;;14.20;99.90;;;;;;5090820;28;20446;-78
2023/05/30 04:48:48;;;;;;;7.17;3.80;;;14.10;99.90;;;;;;5091481;28;20494;-77
2023/05/30 04:51:15;;;;;;;7.27;3.93;;;14.10;99.90;;;;;;5092870;28;20548;-77
2023/05/30 04:53:42;;;;;;;6.90;4.30;;;14.10;99.90;;;;;;5090435;28;20433;-77
2023/05/30 04:56:09;;;;;;;7.87;4.07;;;14.20;99.90;;;;;;5099346;28;20530;-78
2023/05/30 04:58:35;;;;;;;6.57;4.17;;;14.20;99.90;;;;;;5110776;28;20474;-77
2023/05/30 05:01:02;;;;;;;7.37;4.73;;;14.30;99.90;;;;;;5109150;28;21032;-77
2023/05/30 05:03:30;;;;;;;7.50;4.50;;;14.50;99.90;;;;;;5110495;28;20558;-78
2023/05/30 05:05:58;;;;;;;7.00;4.03;;;14.50;99.90;;;;;;5095756;28;20463;-78
2023/05/30 05:08:26;;;;;;;7.00;4.30;;;14.50;99.90;;;;;;5105677;28;20503;-79
2023/05/30 05:10:53;;;;;;;6.40;4.43;;;14.50;99.90;;;;;;5114597;28;20468;-79
2023/05/30 05:13:20;;;;;;;6.97;3.90;;;14.60;99.90;;;;;;5108037;28;20473;-79
2023/05/30 05:15:47;;;;;;;6.87;4.27;;;14.60;99.90;;;;;;5096560;28;20469;-79
2023/05/30 05:18:14;;;;;;;7.77;4.23;;;14.20;99.90;;;;;;5095975;28;20529;-79
2023/05/30 05:20:41;;;;;;;6.70;5.17;;;14.10;99.90;;;;;;5094504;28;20488;-88
2023/05/30 05:23:09;;;;;;;6.70;5.50;;;14.30;99.90;;;;;;5104755;28;20454;-79
2023/05/30 05:25:36;;;;;;;6.40;4.30;;;14.40;99.90;;;;;;5116329;28;20463;-79
2023/05/30 05:28:03;;;;;;;6.67;5.37;;;14.20;99.90;;;;;;5116539;28;20599;-79
2023/05/30 05:30:30;;;;;;;8.60;5.27;;;14.30;99.90;;;;;;5118600;28;20486;-80
2023/05/30 05:32:57;;;;;;;8.60;5.27;;;14.40;99.90;;;;;;5116370;28;20457;-79
2023/05/30 05:35:24;;;;;;;6.70;4.77;;;14.40;99.90;;;;;;5116422;28;20534;-79
2023/05/30 05:37:51;;;;;;;7.67;5.60;;;14.20;99.90;;;;;;5115719;28;20474;-79
2023/05/30 05:40:20;;;;;;;6.33;4.53;;;14.10;99.90;;;;;;5117221;27;20464;-80
2023/05/30 05:42:47;;;;;;;8.87;6.27;;;14.20;99.90;;;;;;5115395;28;20462;-79
2023/05/30 05:45:14;;;;;;;11.20;6.50;;;14.20;99.90;;;;;;5112446;28;20562;-79
2023/05/30 05:47:40;;;;;;;6.93;5.00;;;14.10;99.90;;;;;;5103691;28;20866;-79
2023/05/30 05:50:08;;;;;;;6.50;5.17;;;14.20;99.90;;;;;;5113298;28;20558;-79
2023/05/30 05:52:35;;;;;;;6.93;5.50;;;14.30;99.90;;;;;;5108952;28;20588;-79
2023/05/30 05:55:02;;;;;;;7.73;5.13;;;14.30;99.90;;;;;;5109525;28;20492;-79
2023/05/30 05:57:30;;;;;;;9.00;4.90;;;14.30;99.90;;;;;;5101198;28;20449;-79
2023/05/30 05:59:57;;;;;;;7.23;5.50;;;14.30;99.90;;;;;;5095847;28;20515;-79
2023/05/30 06:02:24;;;;;;;6.43;4.77;;;14.40;99.90;;;;;;5100484;28;20486;-79
2023/05/30 06:04:51;;;;;;;11.93;5.23;;;14.40;99.90;;;;;;5100080;28;20475;-79
2023/05/30 06:07:18;;;;;;;9.27;6.27;;;14.60;99.90;;;;;;5099107;28;20466;-78
2023/05/30 06:09:45;;;;;;;7.37;5.23;;;14.70;99.90;;;;;;5094297;28;20446;-79
2023/05/30 06:12:12;;;;;;;10.50;6.23;;;14.80;99.90;;;;;;5095608;28;20490;-78
2023/05/30 06:14:40;;;;;;;6.60;5.37;;;14.70;99.90;;;;;;5087889;28;20870;-79
2023/05/30 06:17:08;;;;;;;7.40;5.00;;;14.80;99.90;;;;;;5092022;28;20619;-79
2023/05/30 06:19:35;;;;;;;8.00;5.70;;;14.80;99.90;;;;;;5100622;28;20522;-79
2023/05/30 06:22:02;;;;;;;9.90;6.00;;;14.80;99.90;;;;;;5112894;28;20520;-79
2023/05/30 06:24:29;;;;;;;7.80;5.33;;;14.90;99.90;;;;;;5107813;28;20910;-79
2023/05/30 06:26:55;;;;;;;8.40;5.33;;;15.10;99.90;;;;;;5114191;28;20471;-79
2023/05/30 06:29:22;;;;;;;6.03;5.40;;;15.10;99.90;;;;;;5112730;28;20533;-79
2023/05/30 06:31:51;;;;;;;7.90;5.53;;;15.20;99.90;;;;;;5105899;28;20884;-79
2023/05/30 06:34:18;;;;;;;11.80;5.63;;;15.30;99.90;;;;;;5111470;28;20453;-79
2023/05/30 06:36:44;;;;;;;12.03;6.10;;;15.30;99.90;;;;;;5113740;28;20479;-79
2023/05/30 06:39:15;;;;;;;8.47;5.30;;;15.40;99.90;;;;;;5115520;28;20460;-79
2023/05/30 06:41:43;;;;;;;8.33;5.40;;;15.50;99.90;;;;;;5105047;28;20457;-79
2023/05/30 06:44:10;;;;;;;7.97;5.67;;;15.50;99.90;;;;;;5106983;28;20995;-79
2023/05/30 06:46:37;;;;;;;8.50;5.30;;;15.30;99.90;;;;;;5106103;28;20506;-79
2023/05/30 06:49:05;;;;;;;7.20;4.37;;;15.30;99.90;;;;;;5108130;28;20511;-79
2023/05/30 06:51:32;;;;;;;6.20;4.80;;;15.20;99.90;;;;;;5116399;28;20491;-79
2023/05/30 06:53:59;;;;;;;5.90;4.37;;;15.30;99.90;;;;;;5116336;28;20433;-79
2023/05/30 06:56:26;;;;;;;5.80;4.23;;;15.30;99.90;;;;;;5115110;28;21000;-78
2023/05/30 06:58:53;;;;;;;8.30;5.13;;;15.30;99.90;;;;;;5117484;28;20656;-79
2023/05/30 07:01:20;;;;;;;8.87;4.60;;;15.30;99.90;;;;;;5113387;28;20661;-79
2023/05/30 07:03:47;;;;;;;9.53;4.60;;;15.30;99.90;;;;;;5107755;28;20482;-79
2023/05/30 07:06:15;;;;;;;7.97;4.60;;;15.30;99.90;;;;;;5107380;28;20496;-79
2023/05/30 07:08:43;;;;;;;7.47;3.97;;;15.40;99.90;;;;;;5116953;28;20535;-79
2023/05/30 07:11:10;;;;;;;8.40;4.83;;;15.40;99.90;;;;;;5115801;28;20463;-79
2023/05/30 07:13:37;;;;;;;9.00;5.47;;;15.40;99.90;;;;;;5119476;28;20442;-79
2023/05/30 07:16:04;;;;;;;7.20;4.47;;;15.50;99.90;;;;;;5113770;28;20474;-79
2023/05/30 07:18:31;;;;;;;6.27;4.30;;;15.60;99.90;;;;;;5119673;28;20432;-79
2023/05/30 07:20:58;;;;;;;5.20;3.97;;;15.70;99.90;;;;;;5125088;28;20464;-79
2023/05/30 07:23:26;;;;;;;8.03;4.97;;;15.90;99.90;;;;;;5113319;28;20464;-79
2023/05/30 07:25:53;;;;;;;7.50;4.97;;;15.90;99.90;;;;;;5106200;28;20475;-79
2023/05/30 07:28:22;;;;;;;9.23;4.73;;;16.00;99.90;;;;;;5115436;28;20472;-79
2023/05/30 07:30:49;;;;;;;8.70;4.13;;;16.10;99.90;;;;;;5114776;28;20471;-79
2023/05/30 07:33:16;;;;;;;6.13;4.43;;;16.20;99.90;;;;;;5106329;28;20496;-79
2023/05/30 07:35:43;;;;;;;8.07;4.67;;;16.10;99.90;;;;;;5114807;28;20462;-79
2023/05/30 07:38:10;;;;;;;5.23;4.03;;;16.10;99.90;;;;;;5115422;28;20536;-79
2023/05/30 07:40:38;;;;;;;5.97;4.70;;;16.10;99.90;;;;;;5115191;28;20465;-79
2023/05/30 07:43:05;;;;;;;6.23;4.50;;;16.10;99.90;;;;;;5115848;28;20479;-79
2023/05/30 07:45:33;;;;;;;7.63;5.00;;;16.20;99.90;;;;;;5116621;28;20479;-79
2023/05/30 07:47:59;;;;;;;9.23;4.37;;;16.30;99.90;;;;;;5106482;28;20459;-79
2023/05/30 07:50:26;;;;;;;6.10;4.10;;;16.50;99.90;;;;;;5101268;28;20531;-79
2023/05/30 07:52:53;;;;;;;6.70;4.77;;;16.70;99.90;;;;;;5096985;28;20483;-79
2023/05/30 07:55:20;;;;;;;5.23;3.63;;;16.70;99.90;;;;;;5094341;28;20474;-79
2023/05/30 07:57:48;;;;;;;5.50;4.53;;;16.80;99.90;;;;;;5094276;28;20996;-79
2023/05/30 08:00:16;;;;;;;7.97;4.30;;;16.80;99.90;;;;;;5103876;28;20550;-79
2023/05/30 08:02:43;;;;;;;6.17;4.50;;;16.90;99.90;;;;;;5105522;28;21078;-79
2023/05/30 08:05:10;;;;;;;7.93;4.50;;;16.90;99.90;;;;;;5105478;28;20511;-79
2023/05/30 08:07:37;;;;;;;7.27;5.00;;;17.00;99.90;;;;;;5115002;28;20519;-79
2023/05/30 08:10:03;;;;;;;6.67;5.03;;;17.00;99.90;;;;;;5116652;28;20463;-79
2023/05/30 08:12:30;;;;;;;6.13;4.27;;;17.00;99.90;;;;;;5116812;28;20957;-79
2023/05/30 08:14:59;;;;;;;8.63;5.00;;;17.10;99.90;;;;;;5115930;28;20454;-79
2023/05/30 08:17:27;;;;;;;6.73;4.60;;;17.20;99.90;;;;;;5115354;28;20448;-79
2023/05/30 08:19:55;;;;;;;5.73;4.40;;;17.20;99.90;;;;;;5116095;28;20456;-79
2023/05/30 08:22:24;;;;;;;6.23;4.43;;;17.30;99.90;;;;;;5115471;28;20482;-79
2023/05/30 08:24:53;;;;;;;7.10;4.17;;;17.30;99.90;;;;;;5116102;28;20842;-79
2023/05/30 08:27:21;;;;;;;8.20;4.33;;;17.30;99.90;;;;;;5114676;28;20481;-79
2023/05/30 08:29:49;;;;;;;6.97;5.20;;;17.30;99.90;;;;;;5115277;28;20439;-79
2023/05/30 08:32:18;;;;;;;9.40;5.00;;;17.40;99.90;;;;;;5114979;28;20797;-79
2023/05/30 08:34:45;;;;;;;5.13;3.87;;;17.40;99.90;;;;;;5115009;28;20479;-79
2023/05/30 08:37:12;;;;;;;5.83;4.33;;;17.40;99.90;;;;;;5114311;28;20487;-79
2023/05/30 08:39:39;;;;;;;5.93;4.00;;;17.50;99.90;;;;;;5113320;28;20914;-79
2023/05/30 08:42:07;;;;;;;8.83;4.77;;;17.50;99.90;;;;;;5113247;28;20527;-79
2023/05/30 08:44:34;;;;;;;7.40;4.43;;;17.60;99.90;;;;;;5114630;28;20481;-79
2023/05/30 08:47:01;;;;;;;7.03;4.37;;;17.60;99.90;;;;;;5114015;28;20818;-79
2023/05/30 08:49:33;;;;;;;8.57;5.23;;;17.70;99.90;;;;;;5114748;28;20842;-79
2023/05/30 08:52:03;;;;;;;7.00;5.10;;;17.80;99.90;;;;;;5117706;28;20480;-79
2023/05/30 08:54:40;;;;;;;7.27;5.20;;;17.90;99.90;;;;;;5116967;28;20489;-79
2023/05/30 08:57:18;;;;;;;8.27;4.50;;;18.00;99.90;;;;;;5116714;28;20483;-79
2023/05/30 08:59:48;;;;;;;7.27;5.00;;;18.10;99.90;;;;;;5116230;28;20440;-79
2023/05/30 09:02:16;;;;;;;6.00;3.73;;;18.30;99.90;;;;;;5111819;28;20515;-79
2023/05/30 09:04:44;;;;;;;9.17;5.07;;;18.40;99.90;;;;;;5115570;28;20516;-79
2023/05/30 09:07:14;;;;;;;7.70;6.10;;;18.30;99.90;;;;;;5115661;28;20477;-79
2023/05/30 09:09:42;;;;;;;7.60;4.90;;;18.40;99.90;;;;;;5113647;28;20500;-79
2023/05/30 09:12:10;;;;;;;6.83;4.67;;;18.30;99.90;;;;;;5114572;28;20466;-79
2023/05/30 09:14:37;;;;;;;6.17;4.00;;;18.30;99.90;;;;;;5115246;28;20800;-78
2023/05/30 09:17:04;;;;;;;5.73;3.97;;;18.40;99.90;;;;;;5114864;28;20457;-79
2023/05/30 09:19:31;;;;;;;6.13;4.67;;;18.60;99.90;;;;;;5114887;28;20498;-79
2023/05/30 09:22:00;;;;;;;6.80;4.03;;;18.70;99.90;;;;;;5116491;28;20481;-79
2023/05/30 09:24:58;;;;;;;8.43;4.50;;;18.70;99.90;;;;;;5116549;28;20748;-79
2023/05/30 09:27:25;;;;;;;6.27;4.23;;;18.70;99.90;;;;;;5115927;28;20475;-79
2023/05/30 09:29:52;;;;;;;7.17;4.77;;;18.90;99.90;;;;;;5116187;28;20445;-79
2023/05/30 09:32:20;;;;;;;6.23;3.80;;;19.10;99.90;;;;;;5116324;28;20463;-79
2023/05/30 09:34:55;;;;;;;9.57;4.70;;;19.10;99.90;;;;;;5113686;28;20431;-79
2023/05/30 09:37:24;;;;;;;6.17;4.53;;;19.20;99.90;;;;;;5112244;28;20450;-79
2023/05/30 09:40:09;;;;;;;10.83;4.90;;;19.30;99.90;;;;;;5111589;28;20464;-79
2023/05/30 09:42:40;;;;;;;5.77;4.60;;;19.30;99.90;;;;;;5111401;28;20926;-79
2023/05/30 09:45:08;;;;;;;8.57;4.53;;;19.30;99.90;;;;;;5112826;28;20470;-79
2023/05/30 09:47:40;;;;;;;5.60;4.03;;;19.40;99.90;;;;;;5114616;28;20431;-79
2023/05/30 09:50:09;;;;;;;7.90;4.77;;;19.50;99.90;;;;;;5113206;28;20489;-79
2023/05/30 09:52:38;;;;;;;5.87;3.63;;;19.50;99.90;;;;;;5113892;28;20797;-79
2023/05/30 09:55:06;;;;;;;7.20;5.03;;;19.60;99.90;;;;;;5117111;28;20470;-79
2023/05/30 09:57:36;;;;;;;8.00;4.40;;;19.70;99.90;;;;;;5117394;28;20470;-79
2023/05/30 10:00:09;;;;;;;7.30;4.33;;;19.80;99.90;;;;;;5116929;28;20435;-79
2023/05/30 10:02:37;;;;;;;6.10;4.17;;;20.00;99.90;;;;;;5115633;28;20446;-79
2023/05/30 10:05:05;;;;;;;9.40;5.70;;;20.00;99.90;;;;;;5116975;28;20476;-80
2023/05/30 10:07:32;;;;;;;9.17;5.63;;;20.10;99.90;;;;;;5111059;28;20451;-79
2023/05/30 10:10:01;;;;;;;6.30;3.73;;;20.20;99.90;;;;;;5106377;28;20442;-79
2023/05/30 10:12:30;;;;;;;7.60;4.47;;;20.50;99.90;;;;;;5105983;28;20597;-79
2023/05/30 10:14:57;;;;;;;9.07;5.10;;;20.40;99.90;;;;;;5106971;28;20462;-79
2023/05/30 10:17:28;;;;;;;7.13;4.47;;;20.40;99.90;;;;;;5109458;28;20527;-79
2023/05/30 10:20:01;;;;;;;5.90;4.10;;;20.40;99.90;;;;;;5109831;28;20434;-79
2023/05/30 10:22:31;;;;;;;6.57;3.97;;;20.50;99.90;;;;;;5102609;28;20468;-79
2023/05/30 10:25:00;;;;;;;5.40;4.23;;;20.60;99.90;;;;;;5094816;28;20574;-79
2023/05/30 10:27:31;;;;;;;8.27;4.10;;;20.60;99.90;;;;;;5095196;28;20467;-79
2023/05/30 10:30:04;;;;;;;7.30;5.30;;;20.50;99.90;;;;;;5100785;28;20989;-79
2023/05/30 10:32:35;;;;;;;7.13;4.43;;;20.60;99.90;;;;;;5108181;28;20448;-79
2023/05/30 10:35:11;;;;;;;7.53;4.27;;;20.60;99.90;;;;;;5111008;28;20443;-79
2023/05/30 10:37:39;;;;;;;6.37;3.80;;;20.80;99.90;;;;;;5111748;28;20582;-79
2023/05/30 10:40:19;;;;;;;6.17;3.97;;;20.80;99.90;;;;;;5111987;28;20966;-79
2023/05/30 10:42:57;;;;;;;5.27;4.03;;;20.70;99.90;;;;;;5110931;28;20499;-79
2023/05/30 10:45:31;;;;;;;8.50;4.70;;;20.90;99.90;;;;;;5112179;28;20510;-79
2023/05/30 10:48:06;;;;;;;8.87;4.40;;;21.00;99.90;;;;;;5107352;28;20532;-79
2023/05/30 10:50:38;;;;;;;6.97;3.40;;;21.10;99.90;;;;;;5108971;28;20449;-80
2023/05/30 10:53:13;;;;;;;8.90;4.63;;;21.00;99.90;;;;;;5108834;28;20522;-79
2023/05/30 10:55:43;;;;;;;7.07;4.40;;;21.10;99.90;;;;;;5102347;28;20432;-80
2023/05/30 10:58:38;;;;;;;7.10;4.50;;;21.00;99.90;;;;;;5111065;28;20435;-79
2023/05/30 11:01:27;;;;;;;5.60;3.70;;;20.90;99.00;;;;;;5123251;28;20880;-79
2023/05/30 11:04:02;;;;;;;5.47;3.53;;;21.10;99.50;;;;;;5111356;28;20477;-80
2023/05/30 11:06:33;;;;;;;5.80;4.10;;;21.30;97.40;;;;;;5114042;28;20514;-80
2023/05/30 11:09:08;;;;;;;6.00;3.53;;;21.30;97.90;;;;;;5115202;28;20450;-79
2023/05/30 11:11:38;;;;;;;8.53;4.17;;;21.40;99.90;;;;;;5113804;28;20462;-80
2023/05/30 11:14:06;;;;;;;7.30;4.17;;;21.50;99.90;;;;;;5113644;28;20484;-79
2023/05/30 11:16:33;;;;;;;6.60;4.13;;;21.40;93.70;;;;;;5114148;28;20935;-80
2023/05/30 11:19:11;;;;;;;10.90;4.33;;;21.40;98.00;;;;;;5116898;28;20439;-79
2023/05/30 11:22:00;;;;;;;5.20;4.00;;;21.40;95.80;;;;;;5112739;28;20498;-80
2023/05/30 11:24:28;;;;;;;5.73;4.00;;;21.60;94.10;;;;;;5114389;28;20454;-80
2023/05/30 11:26:58;;;;;;;6.23;3.70;;;21.60;93.90;;;;;;5114073;28;20909;-79
2023/05/30 11:29:32;;;;;;;6.47;4.23;;;21.60;93.10;;;;;;5114481;28;20466;-80
2023/05/30 11:32:00;;;;;;;8.13;4.33;;;21.60;96.50;;;;;;5117034;28;20458;-79
2023/05/30 11:34:27;;;;;;;4.27;3.60;;;21.80;99.90;;;;;;5116748;28;20451;-79
2023/05/30 11:36:55;;;;;;;6.13;4.07;;;21.80;97.20;;;;;;5116791;28;20970;-79
2023/05/30 11:39:22;;;;;;;5.17;4.13;;;21.90;97.80;;;;;;5117129;28;20464;-79
2023/05/30 11:41:49;;;;;;;6.60;3.43;;;22.00;93.90;;;;;;5117734;28;20491;-79
2023/05/30 11:44:18;;;;;;;5.80;3.90;;;21.90;95.10;;;;;;5116022;28;20526;-80
2023/05/30 11:46:57;;;;;;;5.10;3.37;;;21.90;93.30;;;;;;5115450;28;20514;-80
2023/05/30 11:49:24;;;;;;;5.53;3.47;;;21.90;96.20;;;;;;5114045;28;20825;-80
2023/05/30 11:51:51;;;;;;;4.63;3.50;;;22.00;99.90;;;;;;5113797;28;20463;-79
2023/05/30 11:54:18;;;;;;;5.43;3.60;;;21.90;94.50;;;;;;5116748;28;20458;-79
2023/05/30 11:56:47;;;;;;;4.60;3.23;;;22.00;97.60;;;;;;5118461;28;20499;-80
2023/05/30 11:59:20;;;;;;;7.07;3.97;;;22.10;98.00;;;;;;5118318;28;20480;-80
2023/05/30 12:01:54;;;;;;;7.93;3.60;;;22.10;97.40;;;;;;5116067;28;20463;-80
2023/05/30 12:04:26;;;;;;;5.40;3.03;;;22.20;98.30;;;;;;5112625;28;20459;-79
2023/05/30 12:06:53;;;;;;;5.87;4.10;;;22.20;99.00;;;;;;5114467;28;20557;-80
2023/05/30 12:09:21;;;;;;;6.33;4.00;;;22.30;92.30;;;;;;5114840;28;20528;-79
2023/05/30 12:11:59;;;;;;;8.47;3.80;;;22.30;91.00;;;;;;5115346;28;20491;-79
2023/05/30 12:14:41;;;;;;;5.17;3.87;;;22.20;94.90;;;;;;5115654;28;20809;-80
2023/05/30 12:17:12;;;;;;;5.00;3.90;;;22.40;96.60;;;;;;5117026;28;20443;-79
2023/05/30 12:19:41;;;;;;;5.40;3.53;;;22.40;94.00;;;;;;5116056;28;20529;-79
2023/05/30 12:22:08;;;;;;;6.33;4.07;;;22.50;92.10;;;;;;5116833;28;20515;-80
2023/05/30 12:24:37;;;;;;;5.67;4.00;;;22.40;97.80;;;;;;5116422;28;20478;-80
2023/05/30 12:27:05;;;;;;;5.57;3.37;;;22.40;94.40;;;;;;5117642;27;20470;-80
2023/05/30 12:29:35;;;;;;;5.33;3.10;;;22.40;94.80;;;;;;5117445;28;20870;-80
2023/05/30 12:32:02;;;;;;;4.00;3.20;;;22.40;92.50;;;;;;5116722;28;20467;-80
2023/05/30 12:34:39;;;;;;;5.67;3.53;;;22.40;95.30;;;;;;5115038;28;20484;-79
2023/05/30 12:37:09;;;;;;;6.20;3.60;;;22.50;93.70;;;;;;5115088;28;20466;-79
2023/05/30 12:39:43;;;;;;;6.87;3.90;;;22.60;93.70;;;;;;5115616;28;20453;-79
2023/05/30 12:42:10;;;;;;;5.93;3.60;;;22.60;95.20;;;;;;5113631;28;20530;-79
2023/05/30 12:44:52;;;;;;;8.03;3.70;;;22.60;92.90;;;;;;5113418;28;20447;-79
2023/05/30 12:47:19;;;;;;;6.10;4.10;;;22.60;94.30;;;;;;5116214;28;20474;-79
2023/05/30 12:49:47;;;;;;;6.40;3.87;;;22.50;94.60;;;;;;5114078;28;20447;-80
2023/05/30 12:52:14;;;;;;;6.00;4.10;;;22.60;92.50;;;;;;5115507;28;20447;-79
2023/05/30 12:54:42;;;;;;;6.83;3.70;;;22.70;96.40;;;;;;5114579;28;20438;-80